createdAt,value
2023-03-18T00:01:17.233Z,3.13
2023-03-18T00:03:45.917Z,1.60
2023-03-18T00:06:18.502Z,2.50
2023-03-18T00:08:50.702Z,2.27
2023-03-18T00:11:21.359Z,1.93
2023-03-18T00:13:50.160Z,2.00
2023-03-18T00:16:19.946Z,2.10
2023-03-18T00:18:48.698Z,3.13
2023-03-18T00:21:17.046Z,2.03
2023-03-18T00:23:45.262Z,2.07
2023-03-18T00:26:14.826Z,2.10
2023-03-18T00:28:42.976Z,3.17
2023-03-18T00:31:15.549Z,1.97
2023-03-18T00:33:45.701Z,2.40
2023-03-18T00:36:14.685Z,1.70
2023-03-18T00:38:44.267Z,2.00
2023-03-18T00:41:15.918Z,1.97
2023-03-18T00:43:52.771Z,1.93
2023-03-18T00:46:24.686Z,1.47
2023-03-18T00:48:55.354Z,2.90
2023-03-18T00:51:26.552Z,2.17
2023-03-18T00:53:58.850Z,2.17
2023-03-18T00:56:30.995Z,2.70
2023-03-18T00:59:00.079Z,2.27
2023-03-18T01:01:29.753Z,3.30
2023-03-18T01:03:58.021Z,3.03
2023-03-18T01:06:29.651Z,3.13
2023-03-18T01:09:01.394Z,2.40
2023-03-18T01:11:31.855Z,2.20
2023-03-18T01:14:00.612Z,2.47
2023-03-18T01:16:29.821Z,2.03
2023-03-18T01:18:58.376Z,3.53
2023-03-18T01:21:26.753Z,1.93
2023-03-18T01:23:54.938Z,1.93
2023-03-18T01:26:23.680Z,2.13
2023-03-18T01:28:53.485Z,1.67
2023-03-18T01:31:21.926Z,2.63
2023-03-18T01:33:50.141Z,1.60
2023-03-18T01:36:18.637Z,1.80
2023-03-18T01:38:46.771Z,1.83
2023-03-18T01:41:16.769Z,2.07
2023-03-18T01:43:45.190Z,2.43
2023-03-18T01:46:38.373Z,2.20
2023-03-18T01:49:12.672Z,3.00
2023-03-18T01:51:43.983Z,1.80
2023-03-18T01:54:14.099Z,2.03
2023-03-18T01:56:45.165Z,2.20
2023-03-18T01:59:14.666Z,2.10
2023-03-18T02:01:50.097Z,1.90
2023-03-18T02:04:19.040Z,2.00
2023-03-18T02:06:47.161Z,2.80
2023-03-18T02:09:16.177Z,2.80
2023-03-18T02:11:49.845Z,3.30
2023-03-18T02:14:22.102Z,2.33
2023-03-18T02:17:01.642Z,3.37
2023-03-18T02:19:51.918Z,2.33
2023-03-18T02:22:29.702Z,2.60
2023-03-18T02:25:17.412Z,2.90
2023-03-18T02:27:50.847Z,2.57
2023-03-18T02:30:24.912Z,2.80
2023-03-18T02:32:54.563Z,2.60
2023-03-18T02:35:23.104Z,3.27
2023-03-18T02:37:51.290Z,3.40
2023-03-18T02:40:24.556Z,3.50
2023-03-18T02:42:55.217Z,2.77
2023-03-18T02:45:39.556Z,3.83
2023-03-18T02:48:09.633Z,2.27
2023-03-18T02:50:38.400Z,2.47
2023-03-18T02:53:07.874Z,2.70
2023-03-18T02:55:36.042Z,2.80
2023-03-18T02:58:05.661Z,2.77
2023-03-18T03:00:34.012Z,3.17
2023-03-18T03:03:03.996Z,3.00
2023-03-18T03:05:33.168Z,2.50
2023-03-18T03:08:01.334Z,2.73
2023-03-18T03:10:29.874Z,2.83
2023-03-18T03:12:58.463Z,2.60
2023-03-18T03:15:28.904Z,2.47
2023-03-18T03:17:57.132Z,3.03
2023-03-18T03:20:25.675Z,2.87
2023-03-18T03:22:54.393Z,2.80
2023-03-18T03:25:22.758Z,3.53
2023-03-18T03:27:51.010Z,3.07
2023-03-18T03:30:19.180Z,3.53
2023-03-18T03:32:48.790Z,2.33
2023-03-18T03:35:19.796Z,2.73
2023-03-18T03:37:48.734Z,3.00
2023-03-18T03:40:20.447Z,4.00
2023-03-18T03:42:49.913Z,3.50
2023-03-18T03:45:20.185Z,3.23
2023-03-18T03:47:50.063Z,2.93
2023-03-18T03:50:19.613Z,3.40
2023-03-18T03:52:48.373Z,2.67
2023-03-18T03:55:21.383Z,4.43
2023-03-18T03:57:50.060Z,2.67
2023-03-18T04:00:24.827Z,3.47
2023-03-18T04:02:55.355Z,3.43
2023-03-18T04:05:25.778Z,3.30
2023-03-18T04:07:59.976Z,3.97
2023-03-18T04:10:29.185Z,3.13
2023-03-18T04:12:57.464Z,4.50
2023-03-18T04:15:26.198Z,4.60
2023-03-18T04:17:56.046Z,3.77
2023-03-18T04:20:24.208Z,3.30
2023-03-18T04:22:53.081Z,4.10
2023-03-18T04:25:22.174Z,3.70
2023-03-18T04:27:52.557Z,5.83
2023-03-18T04:30:23.322Z,4.60
2023-03-18T04:32:51.884Z,3.77
2023-03-18T04:35:23.265Z,5.20
2023-03-18T04:37:51.837Z,3.87
2023-03-18T04:40:20.226Z,4.53
2023-03-18T04:42:48.896Z,3.67
2023-03-18T04:45:18.716Z,3.87
2023-03-18T04:47:47.497Z,4.13
2023-03-18T04:50:16.497Z,3.87
2023-03-18T04:52:46.189Z,3.63
2023-03-18T04:55:16.470Z,4.30
2023-03-18T04:57:44.916Z,4.20
2023-03-18T05:00:18.161Z,4.40
2023-03-18T05:02:46.392Z,4.63
2023-03-18T05:05:14.690Z,4.57
2023-03-18T05:07:43.240Z,3.80
2023-03-18T05:10:13.730Z,4.37
2023-03-18T05:12:42.106Z,4.07
2023-03-18T05:15:12.139Z,5.57
2023-03-18T05:17:40.865Z,4.50
2023-03-18T05:20:11.627Z,4.73
2023-03-18T05:22:40.045Z,3.77
2023-03-18T05:25:11.524Z,3.80
2023-03-18T05:27:41.831Z,4.03
2023-03-18T05:30:12.368Z,3.83
2023-03-18T05:32:40.639Z,4.50
2023-03-18T05:35:10.506Z,4.73
2023-03-18T05:37:39.025Z,5.27
2023-03-18T05:40:09.951Z,4.13
2023-03-18T05:42:55.092Z,5.63
2023-03-18T05:45:23.790Z,4.37
2023-03-18T05:47:54.396Z,4.07
2023-03-18T05:50:30.283Z,4.57
2023-03-18T05:52:58.563Z,4.60
2023-03-18T05:55:28.168Z,3.20
2023-03-18T05:57:59.022Z,4.37
2023-03-18T06:00:28.651Z,3.80
2023-03-18T06:02:58.290Z,4.70
2023-03-18T06:05:28.743Z,4.40
2023-03-18T06:07:57.159Z,4.80
2023-03-18T06:10:26.630Z,3.57
2023-03-18T06:12:56.337Z,3.80
2023-03-18T06:15:27.495Z,4.80
2023-03-18T06:17:56.348Z,3.67
2023-03-18T06:20:24.490Z,4.17
2023-03-18T06:22:52.704Z,3.83
2023-03-18T06:25:22.295Z,5.43
2023-03-18T06:27:50.983Z,3.80
2023-03-18T06:30:22.417Z,5.00
2023-03-18T06:32:53.340Z,4.50
2023-03-18T06:35:21.833Z,3.37
2023-03-18T06:37:50.230Z,4.27
2023-03-18T06:40:20.903Z,3.67
2023-03-18T06:42:49.316Z,3.83
2023-03-18T06:45:18.121Z,4.47
2023-03-18T06:47:46.637Z,3.63
2023-03-18T06:50:17.167Z,4.67
2023-03-18T06:52:45.375Z,4.03
2023-03-18T06:55:14.852Z,4.50
2023-03-18T06:57:43.100Z,3.90
2023-03-18T07:00:13.363Z,4.83
2023-03-18T07:02:42.031Z,4.70
2023-03-18T07:05:17.140Z,5.73
2023-03-18T07:07:48.534Z,5.73
2023-03-18T07:10:22.649Z,4.77
2023-03-18T07:12:52.324Z,5.47
2023-03-18T07:15:22.548Z,5.57
2023-03-18T07:17:52.339Z,4.97
2023-03-18T07:20:22.273Z,5.77
2023-03-18T07:22:52.536Z,6.27
2023-03-18T07:25:22.851Z,5.50
2023-03-18T07:27:51.164Z,4.77
2023-03-18T07:30:21.303Z,5.30
2023-03-18T07:32:49.881Z,4.83
2023-03-18T07:35:18.304Z,5.07
2023-03-18T07:37:46.517Z,5.53
2023-03-18T07:40:16.843Z,5.20
2023-03-18T07:42:45.135Z,4.57
2023-03-18T07:45:13.373Z,4.47
2023-03-18T07:47:41.665Z,5.80
2023-03-18T07:50:12.319Z,6.37
2023-03-18T07:52:40.817Z,5.57
2023-03-18T07:55:10.258Z,4.87
2023-03-18T07:57:39.944Z,4.57
2023-03-18T08:00:11.534Z,4.53
2023-03-18T08:02:40.345Z,6.07
2023-03-18T08:05:09.708Z,6.20
2023-03-18T08:07:38.450Z,5.30
2023-03-18T08:10:08.979Z,4.30
2023-03-18T08:12:51.699Z,4.83
2023-03-18T08:15:23.406Z,5.43
2023-03-18T08:17:52.568Z,5.10
2023-03-18T08:20:21.450Z,4.50
2023-03-18T08:22:50.017Z,5.60
2023-03-18T08:25:18.929Z,5.60
2023-03-18T08:27:47.120Z,5.87
2023-03-18T08:30:16.497Z,5.80
2023-03-18T08:32:46.474Z,6.20
2023-03-18T08:35:15.045Z,6.10
2023-03-18T08:37:43.148Z,6.77
2023-03-18T08:40:13.405Z,5.67
2023-03-18T08:42:41.582Z,6.67
2023-03-18T08:45:11.195Z,7.10
2023-03-18T08:47:39.531Z,5.93
2023-03-18T08:50:11.055Z,5.87
2023-03-18T08:52:39.811Z,5.67
2023-03-18T08:55:10.063Z,6.30
2023-03-18T08:57:38.958Z,7.20
2023-03-18T09:00:09.102Z,6.80
2023-03-18T09:02:37.334Z,7.77
2023-03-18T09:05:06.789Z,6.87
2023-03-18T09:07:36.653Z,5.80
2023-03-18T09:10:06.088Z,5.93
2023-03-18T09:12:34.491Z,5.33
2023-03-18T09:15:03.134Z,7.37
2023-03-18T09:17:50.943Z,5.60
2023-03-18T09:20:20.481Z,5.43
2023-03-18T09:22:52.424Z,5.80
2023-03-18T09:25:20.976Z,6.10
2023-03-18T09:27:49.056Z,6.33
2023-03-18T09:30:17.417Z,6.23
2023-03-18T09:32:46.391Z,5.97
2023-03-18T09:35:14.699Z,5.60
2023-03-18T09:37:43.731Z,6.20
2023-03-18T09:40:21.362Z,6.73
2023-03-18T09:43:02.511Z,6.47
2023-03-18T09:45:35.623Z,5.97
2023-03-18T09:48:26.599Z,5.93
2023-03-18T09:51:04.435Z,5.43
2023-03-18T09:53:42.430Z,4.90
2023-03-18T09:56:18.566Z,4.90
2023-03-18T09:58:54.797Z,5.00
2023-03-18T10:01:25.884Z,4.40
2023-03-18T10:04:01.936Z,5.40
2023-03-18T10:06:30.702Z,4.80
2023-03-18T10:09:09.775Z,5.10
2023-03-18T10:11:43.911Z,6.03
2023-03-18T10:14:25.747Z,5.10
2023-03-18T10:17:06.833Z,4.10
2023-03-18T10:19:36.158Z,3.67
2023-03-18T10:22:27.989Z,4.03
2023-03-18T10:25:07.017Z,4.70
2023-03-18T10:27:50.865Z,3.33
2023-03-18T10:30:48.692Z,3.40
2023-03-18T10:33:28.920Z,4.17
2023-03-18T10:36:06.670Z,4.47
2023-03-18T10:38:38.918Z,5.13
2023-03-18T10:41:18.595Z,4.10
2023-03-18T10:43:50.730Z,4.87
2023-03-18T10:46:22.900Z,4.47
2023-03-18T10:48:56.421Z,4.20
2023-03-18T10:51:31.807Z,5.23
2023-03-18T10:54:05.825Z,5.13
2023-03-18T10:56:35.841Z,4.50
2023-03-18T10:59:13.355Z,5.10
2023-03-18T11:01:42.951Z,4.03
2023-03-18T11:04:16.399Z,4.30
2023-03-18T11:06:50.046Z,4.47
2023-03-18T11:09:21.169Z,5.07
2023-03-18T11:11:51.806Z,4.53
2023-03-18T11:14:23.605Z,4.33
2023-03-18T11:16:59.688Z,4.88
2023-03-18T11:19:32.492Z,5.07
2023-03-18T11:22:20.025Z,4.53
2023-03-18T11:25:02.415Z,4.10
2023-03-18T11:27:39.293Z,4.28
2023-03-18T11:30:33.282Z,3.90
2023-03-18T11:33:07.459Z,5.13
2023-03-18T11:35:45.135Z,4.65
2023-03-18T11:38:20.042Z,4.30
2023-03-18T11:40:48.672Z,4.07
2023-03-18T11:43:21.579Z,4.68
2023-03-18T11:45:57.995Z,4.70
2023-03-18T11:48:34.125Z,4.57
2023-03-18T11:51:30.121Z,4.22
2023-03-18T11:54:15.887Z,4.30
2023-03-18T11:56:48.464Z,4.43
2023-03-18T11:59:31.046Z,3.97
2023-03-18T12:02:22.756Z,4.13
2023-03-18T12:05:21.187Z,4.13
2023-03-18T12:08:03.365Z,3.50
2023-03-18T12:10:36.216Z,3.42
2023-03-18T12:13:20.749Z,3.63
2023-03-18T12:15:55.909Z,4.10
2023-03-18T12:18:43.843Z,3.58
2023-03-18T12:21:37.290Z,3.45
2023-03-18T12:24:24.936Z,3.90
2023-03-18T12:26:59.654Z,3.60
2023-03-18T12:29:51.212Z,3.65
2023-03-18T12:32:28.824Z,3.38
2023-03-18T12:35:21.998Z,2.87
2023-03-18T12:38:28.731Z,3.17
2023-03-18T12:41:07.965Z,3.72
2023-03-18T12:44:04.011Z,3.00
2023-03-18T12:46:37.722Z,2.42
2023-03-18T12:49:15.427Z,2.25
2023-03-18T12:51:51.208Z,2.38
2023-03-18T12:54:25.898Z,2.30
2023-03-18T12:57:01.204Z,2.97
2023-03-18T12:59:37.426Z,1.98
2023-03-18T13:02:22.871Z,2.30
2023-03-18T13:04:56.700Z,2.20
2023-03-18T13:07:37.470Z,2.35
2023-03-18T13:10:21.131Z,1.95
2023-03-18T13:12:53.016Z,1.73
2023-03-18T13:15:29.485Z,1.70
2023-03-18T13:18:05.790Z,2.03
2023-03-18T13:20:37.714Z,1.77
2023-03-18T13:23:25.854Z,1.70
2023-03-18T13:26:09.778Z,1.70
2023-03-18T13:28:57.962Z,1.38
2023-03-18T13:31:42.750Z,1.60
2023-03-18T13:34:56.721Z,1.25
2023-03-18T13:37:47.732Z,1.60
2023-03-18T13:40:52.458Z,1.73
2023-03-18T13:43:24.090Z,1.60
2023-03-18T13:45:54.864Z,1.60
2023-03-18T13:48:28.874Z,1.25
2023-03-18T13:51:00.488Z,1.60
2023-03-18T13:53:32.153Z,1.42
2023-03-18T13:56:28.371Z,1.50
2023-03-18T13:58:56.501Z,1.15
2023-03-18T14:01:33.300Z,2.03
2023-03-18T14:04:32.533Z,1.88
2023-03-18T14:07:17.624Z,2.17
2023-03-18T14:10:08.296Z,1.20
2023-03-18T14:12:48.394Z,2.33
2023-03-18T14:15:42.505Z,2.17
2023-03-18T14:18:37.605Z,1.38
2023-03-18T14:21:08.760Z,1.55
2023-03-18T14:23:43.676Z,1.58
2023-03-18T14:26:24.129Z,1.83
2023-03-18T14:29:16.510Z,1.25
2023-03-18T14:31:58.936Z,2.22
2023-03-18T14:34:30.825Z,1.90
2023-03-18T14:37:30.232Z,1.63
2023-03-18T14:40:05.768Z,1.55
2023-03-18T14:42:59.564Z,1.13
2023-03-18T14:45:34.947Z,0.93
2023-03-18T14:48:06.645Z,1.27
2023-03-18T14:50:43.034Z,1.17
2023-03-18T14:53:20.352Z,0.63
2023-03-18T14:55:49.845Z,0.77
2023-03-18T14:58:19.881Z,1.05
2023-03-18T15:00:52.374Z,0.88
2023-03-18T15:03:24.896Z,0.50
2023-03-18T15:06:00.420Z,1.20
2023-03-18T15:08:46.461Z,0.98
2023-03-18T15:11:16.472Z,1.58
2023-03-18T15:13:45.125Z,1.10
2023-03-18T15:16:20.031Z,1.10
2023-03-18T15:18:54.731Z,1.15
2023-03-18T15:21:26.169Z,1.63
2023-03-18T15:23:57.420Z,1.20
2023-03-18T15:26:30.277Z,1.30
2023-03-18T15:29:00.364Z,1.70
2023-03-18T15:31:32.943Z,1.52
2023-03-18T15:34:12.671Z,1.77
2023-03-18T15:36:42.970Z,1.90
2023-03-18T15:39:22.586Z,2.30
2023-03-18T15:41:55.592Z,2.17
2023-03-18T15:44:31.141Z,1.43
2023-03-18T15:47:13.891Z,0.93
2023-03-18T15:49:52.794Z,2.63
2023-03-18T15:52:26.256Z,1.67
2023-03-18T15:54:54.616Z,1.47
2023-03-18T15:57:30.856Z,1.77
2023-03-18T16:00:00.201Z,1.00
2023-03-18T16:02:31.097Z,0.73
2023-03-18T16:05:09.335Z,1.07
2023-03-18T16:07:37.563Z,0.63
2023-03-18T16:10:06.881Z,1.77
2023-03-18T16:12:35.525Z,1.30
2023-03-18T16:15:05.866Z,0.40
2023-03-18T16:17:35.560Z,0.57
2023-03-18T16:20:06.548Z,0.90
2023-03-18T16:22:35.174Z,0.60
2023-03-18T16:25:03.405Z,0.73
2023-03-18T16:27:38.459Z,0.50
2023-03-18T16:30:08.257Z,0.47
2023-03-18T16:32:38.087Z,0.77
2023-03-18T16:35:07.104Z,1.20
2023-03-18T16:37:35.456Z,1.03
2023-03-18T16:40:03.474Z,0.40
2023-03-18T16:42:31.672Z,0.40
2023-03-18T16:44:59.805Z,0.80
2023-03-18T16:47:29.130Z,1.27
2023-03-18T16:49:59.294Z,1.33
2023-03-18T16:52:27.520Z,1.43
2023-03-18T16:54:55.700Z,1.27
2023-03-18T16:57:24.990Z,0.97
2023-03-18T16:59:56.502Z,1.30
2023-03-18T17:02:32.981Z,0.90
2023-03-18T17:05:03.487Z,1.13
2023-03-18T17:07:34.037Z,1.23
2023-03-18T17:10:02.323Z,1.27
2023-03-18T17:12:30.722Z,1.90
2023-03-18T17:15:00.155Z,2.50
2023-03-18T17:17:33.025Z,3.80
2023-03-18T17:20:03.657Z,4.40
2023-03-18T17:22:34.263Z,4.40
2023-03-18T17:25:02.706Z,4.07
2023-03-18T17:27:35.358Z,3.80
2023-03-18T17:30:03.730Z,3.43
2023-03-18T17:32:32.021Z,4.10
2023-03-18T17:35:00.760Z,4.47
2023-03-18T17:37:30.387Z,4.73
2023-03-18T17:39:58.573Z,3.73
2023-03-18T17:42:33.947Z,3.70
2023-03-18T17:45:10.897Z,3.77
2023-03-18T17:47:40.106Z,6.80
2023-03-18T17:50:14.113Z,3.10
2023-03-18T17:52:43.783Z,2.60
2023-03-18T17:55:22.475Z,4.87
2023-03-18T17:57:53.414Z,2.80
2023-03-18T18:00:24.431Z,2.50
2023-03-18T18:02:54.524Z,2.13
2023-03-18T18:05:25.106Z,1.70
2023-03-18T18:07:54.732Z,2.43
2023-03-18T18:10:22.927Z,1.57
2023-03-18T18:12:52.836Z,1.67
2023-03-18T18:15:25.469Z,1.47
2023-03-18T18:17:55.656Z,2.07
2023-03-18T18:20:24.284Z,3.17
2023-03-18T18:22:56.750Z,3.70
2023-03-18T18:25:29.656Z,3.17
2023-03-18T18:27:58.002Z,2.73
2023-03-18T18:30:27.245Z,2.00
2023-03-18T18:32:56.022Z,5.77
2023-03-18T18:35:25.666Z,5.13
2023-03-18T18:37:55.118Z,5.03
2023-03-18T18:40:23.801Z,3.67
2023-03-18T18:42:51.913Z,3.23
2023-03-18T18:45:21.542Z,2.60
2023-03-18T18:47:49.907Z,2.40
2023-03-18T18:50:21.526Z,2.90
2023-03-18T18:52:49.656Z,5.63
2023-03-18T18:55:19.309Z,8.13
2023-03-18T18:57:48.275Z,9.93
2023-03-18T19:00:19.723Z,13.30
2023-03-18T19:02:47.979Z,13.67
2023-03-18T19:05:16.689Z,12.60
2023-03-18T19:07:46.449Z,12.40
2023-03-18T19:10:16.969Z,9.57
2023-03-18T19:12:46.448Z,7.00
2023-03-18T19:15:15.755Z,6.87
2023-03-18T19:17:45.237Z,6.70
2023-03-18T19:20:29.366Z,5.83
2023-03-18T19:22:57.920Z,7.20
2023-03-18T19:25:27.709Z,5.80
2023-03-18T19:27:58.131Z,6.23
2023-03-18T19:30:27.106Z,7.40
2023-03-18T19:32:55.336Z,6.23
2023-03-18T19:35:23.834Z,5.27
2023-03-18T19:37:52.364Z,5.13
2023-03-18T19:40:29.868Z,6.10
2023-03-18T19:42:59.765Z,4.70
2023-03-18T19:45:28.538Z,4.30
2023-03-18T19:47:56.732Z,3.97
2023-03-18T19:50:24.894Z,4.50
2023-03-18T19:52:54.190Z,3.50
2023-03-18T19:55:23.340Z,3.50
2023-03-18T19:57:53.098Z,3.07
2023-03-18T20:00:26.591Z,3.67
2023-03-18T20:02:55.552Z,3.20
2023-03-18T20:05:25.984Z,3.40
2023-03-18T20:07:54.253Z,4.43
2023-03-18T20:10:22.665Z,3.57
2023-03-18T20:12:52.405Z,3.60
2023-03-18T20:15:25.171Z,2.83
2023-03-18T20:17:54.958Z,3.67
2023-03-18T20:20:25.382Z,3.17
2023-03-18T20:22:56.932Z,3.07
2023-03-18T20:25:29.914Z,3.43
2023-03-18T20:27:58.487Z,4.40
2023-03-18T20:30:31.661Z,3.30
2023-03-18T20:33:00.215Z,4.80
2023-03-18T20:35:31.688Z,3.87
2023-03-18T20:38:04.948Z,4.70
2023-03-18T20:40:34.208Z,3.77
2023-03-18T20:43:03.011Z,3.53
2023-03-18T20:45:32.736Z,3.67
2023-03-18T20:48:01.358Z,3.63
2023-03-18T20:50:30.873Z,4.33
2023-03-18T20:52:59.425Z,3.90
2023-03-18T20:55:31.120Z,4.30
2023-03-18T20:58:00.574Z,4.30
2023-03-18T21:00:33.183Z,4.13
2023-03-18T21:03:03.903Z,5.13
2023-03-18T21:05:32.199Z,4.23
2023-03-18T21:08:00.513Z,4.47
2023-03-18T21:10:28.873Z,4.47
2023-03-18T21:12:57.081Z,4.80
2023-03-18T21:15:27.221Z,4.83
2023-03-18T21:17:58.419Z,5.60
2023-03-18T21:20:29.573Z,6.53
2023-03-18T21:22:57.831Z,5.90
2023-03-18T21:25:28.524Z,5.07
2023-03-18T21:27:58.900Z,5.73
2023-03-18T21:30:27.636Z,5.70
2023-03-18T21:32:57.328Z,5.20
2023-03-18T21:35:28.887Z,5.90
2023-03-18T21:37:57.082Z,6.07
2023-03-18T21:40:26.378Z,5.87
2023-03-18T21:42:54.941Z,5.97
2023-03-18T21:45:24.720Z,6.43
2023-03-18T21:47:53.517Z,6.47
2023-03-18T21:50:26.116Z,6.00
2023-03-18T21:52:56.090Z,7.20
2023-03-18T21:55:24.376Z,6.30
2023-03-18T21:57:52.517Z,6.70
2023-03-18T22:00:22.348Z,5.93
2023-03-18T22:02:51.049Z,5.83
2023-03-18T22:05:24.514Z,5.67
2023-03-18T22:07:52.881Z,5.67
2023-03-18T22:10:23.996Z,5.10
2023-03-18T22:12:52.597Z,5.10
2023-03-18T22:15:39.282Z,5.70
2023-03-18T22:18:08.506Z,5.73
2023-03-18T22:20:39.574Z,4.97
2023-03-18T22:23:16.342Z,4.60
2023-03-18T22:25:46.268Z,5.03
2023-03-18T22:28:15.888Z,5.00
2023-03-18T22:30:46.000Z,5.03
2023-03-18T22:33:21.666Z,5.03
2023-03-18T22:35:51.443Z,4.57
2023-03-18T22:38:21.689Z,5.33
2023-03-18T22:40:52.965Z,5.10
2023-03-18T22:43:31.145Z,4.70
2023-03-18T22:46:00.500Z,5.50
2023-03-18T22:48:29.601Z,5.37
2023-03-18T22:51:00.481Z,5.20
2023-03-18T22:53:34.675Z,5.53
2023-03-18T22:56:10.744Z,5.10
2023-03-18T22:58:40.096Z,5.03
2023-03-18T23:01:08.674Z,6.00
2023-03-18T23:03:40.455Z,4.80
2023-03-18T23:06:16.477Z,5.33
2023-03-18T23:08:48.409Z,4.60
2023-03-18T23:11:18.190Z,5.47
2023-03-18T23:13:49.953Z,5.13
2023-03-18T23:16:21.822Z,5.07
2023-03-18T23:18:51.200Z,5.93
2023-03-18T23:21:24.389Z,5.23
2023-03-18T23:23:53.512Z,5.10
2023-03-18T23:26:21.983Z,5.20
2023-03-18T23:28:50.400Z,5.33
2023-03-18T23:31:19.065Z,5.40
2023-03-18T23:33:47.537Z,5.20
2023-03-18T23:36:15.958Z,6.07
2023-03-18T23:38:46.105Z,4.80
2023-03-18T23:41:14.459Z,5.03
2023-03-18T23:43:42.554Z,5.60
2023-03-18T23:46:10.998Z,5.03
2023-03-18T23:48:39.250Z,5.20
2023-03-18T23:51:07.679Z,4.83
2023-03-18T23:53:37.413Z,4.90
2023-03-18T23:56:11.742Z,5.00
2023-03-18T23:58:39.946Z,5.93
